sensor_id;sensor_type;location;lat;lon;timestamp;P1;durP1;ratioP1;P2;durP2;ratioP2
28653;SDS011;24320;56.980;24.336;2022-12-05T00:03:49;32.00;;;10.45;;
28653;SDS011;24320;56.980;24.336;2022-12-05T00:06:17;25.75;;;11.07;;
28653;SDS011;24320;56.980;24.336;2022-12-05T00:08:45;29.60;;;10.88;;
28653;SDS011;24320;56.980;24.336;2022-12-05T00:11:13;27.63;;;9.57;;
28653;SDS011;24320;56.980;24.336;2022-12-05T00:13:45;32.78;;;10.55;;
28653;SDS011;24320;56.980;24.336;2022-12-05T00:16:14;25.83;;;9.57;;
28653;SDS011;24320;56.980;24.336;2022-12-05T00:18:43;27.00;;;9.27;;
28653;SDS011;24320;56.980;24.336;2022-12-05T00:21:12;29.00;;;10.68;;
28653;SDS011;24320;56.980;24.336;2022-12-05T00:23:41;31.02;;;11.05;;
28653;SDS011;24320;56.980;24.336;2022-12-05T00:26:08;30.73;;;11.57;;
28653;SDS011;24320;56.980;24.336;2022-12-05T00:28:36;30.40;;;11.15;;
28653;SDS011;24320;56.980;24.336;2022-12-05T00:31:04;32.40;;;11.15;;
28653;SDS011;24320;56.980;24.336;2022-12-05T00:33:34;29.88;;;9.75;;
28653;SDS011;24320;56.980;24.336;2022-12-05T00:36:08;24.42;;;9.35;;
28653;SDS011;24320;56.980;24.336;2022-12-05T00:38:37;30.05;;;10.48;;
28653;SDS011;24320;56.980;24.336;2022-12-05T00:41:05;18.23;;;7.68;;
28653;SDS011;24320;56.980;24.336;2022-12-05T00:43:34;26.80;;;9.77;;
28653;SDS011;24320;56.980;24.336;2022-12-05T00:46:05;21.60;;;8.23;;
28653;SDS011;24320;56.980;24.336;2022-12-05T00:48:34;40.47;;;10.77;;
28653;SDS011;24320;56.980;24.336;2022-12-05T00:53:38;31.80;;;10.10;;
28653;SDS011;24320;56.980;24.336;2022-12-05T00:56:09;27.40;;;9.52;;
28653;SDS011;24320;56.980;24.336;2022-12-05T00:58:38;30.60;;;11.20;;
28653;SDS011;24320;56.980;24.336;2022-12-05T01:03:38;23.77;;;10.23;;
28653;SDS011;24320;56.980;24.336;2022-12-05T01:06:05;35.05;;;11.27;;
28653;SDS011;24320;56.980;24.336;2022-12-05T01:08:33;31.92;;;10.35;;
28653;SDS011;24320;56.980;24.336;2022-12-05T01:11:01;38.25;;;11.25;;
28653;SDS011;24320;56.980;24.336;2022-12-05T01:13:30;32.42;;;11.13;;
28653;SDS011;24320;56.980;24.336;2022-12-05T01:15:57;34.90;;;10.80;;
28653;SDS011;24320;56.980;24.336;2022-12-05T01:18:25;31.20;;;12.10;;
28653;SDS011;24320;56.980;24.336;2022-12-05T01:20:53;23.80;;;9.85;;
28653;SDS011;24320;56.980;24.336;2022-12-05T01:23:20;21.48;;;8.23;;
28653;SDS011;24320;56.980;24.336;2022-12-05T01:25:48;30.52;;;10.07;;
28653;SDS011;24320;56.980;24.336;2022-12-05T01:28:16;31.20;;;10.02;;
28653;SDS011;24320;56.980;24.336;2022-12-05T01:30:45;23.45;;;9.52;;
28653;SDS011;24320;56.980;24.336;2022-12-05T01:33:13;26.30;;;8.85;;
28653;SDS011;24320;56.980;24.336;2022-12-05T01:35:40;26.73;;;9.45;;
28653;SDS011;24320;56.980;24.336;2022-12-05T01:38:09;25.17;;;9.38;;
28653;SDS011;24320;56.980;24.336;2022-12-05T01:40:37;28.70;;;10.07;;
28653;SDS011;24320;56.980;24.336;2022-12-05T01:43:09;23.90;;;9.43;;
28653;SDS011;24320;56.980;24.336;2022-12-05T01:45:42;21.90;;;9.32;;
28653;SDS011;24320;56.980;24.336;2022-12-05T01:48:15;26.50;;;8.65;;
28653;SDS011;24320;56.980;24.336;2022-12-05T01:50:46;21.63;;;9.43;;
28653;SDS011;24320;56.980;24.336;2022-12-05T01:53:15;25.20;;;8.60;;
28653;SDS011;24320;56.980;24.336;2022-12-05T01:55:43;27.90;;;9.98;;
28653;SDS011;24320;56.980;24.336;2022-12-05T01:58:11;26.52;;;9.18;;
28653;SDS011;24320;56.980;24.336;2022-12-05T02:00:38;27.15;;;9.25;;
28653;SDS011;24320;56.980;24.336;2022-12-05T02:03:07;19.33;;;7.72;;
28653;SDS011;24320;56.980;24.336;2022-12-05T02:05:38;22.88;;;9.13;;
28653;SDS011;24320;56.980;24.336;2022-12-05T02:08:07;25.15;;;7.93;;
28653;SDS011;24320;56.980;24.336;2022-12-05T02:10:45;23.52;;;10.10;;
28653;SDS011;24320;56.980;24.336;2022-12-05T02:21:35;29.33;;;8.32;;
28653;SDS011;24320;56.980;24.336;2022-12-05T02:37:37;32.60;;;9.75;;
28653;SDS011;24320;56.980;24.336;2022-12-05T02:40:34;26.60;;;9.13;;
28653;SDS011;24320;56.980;24.336;2022-12-05T02:43:18;26.00;;;9.13;;
28653;SDS011;24320;56.980;24.336;2022-12-05T02:45:52;22.63;;;8.48;;
28653;SDS011;24320;56.980;24.336;2022-12-05T02:48:24;24.25;;;9.40;;
28653;SDS011;24320;56.980;24.336;2022-12-05T02:50:55;24.38;;;9.32;;
28653;SDS011;24320;56.980;24.336;2022-12-05T02:53:25;29.02;;;8.90;;
28653;SDS011;24320;56.980;24.336;2022-12-05T02:55:54;20.77;;;9.45;;
28653;SDS011;24320;56.980;24.336;2022-12-05T02:58:29;26.95;;;8.95;;
28653;SDS011;24320;56.980;24.336;2022-12-05T03:01:03;24.88;;;8.95;;
28653;SDS011;24320;56.980;24.336;2022-12-05T03:03:31;18.25;;;8.23;;
28653;SDS011;24320;56.980;24.336;2022-12-05T03:06:01;22.95;;;7.82;;
28653;SDS011;24320;56.980;24.336;2022-12-05T03:08:34;22.05;;;8.32;;
28653;SDS011;24320;56.980;24.336;2022-12-05T03:11:06;18.23;;;8.45;;
28653;SDS011;24320;56.980;24.336;2022-12-05T03:13:40;24.23;;;7.32;;
28653;SDS011;24320;56.980;24.336;2022-12-05T03:16:15;22.50;;;8.43;;
28653;SDS011;24320;56.980;24.336;2022-12-05T03:19:09;26.83;;;9.30;;
28653;SDS011;24320;56.980;24.336;2022-12-05T03:24:41;21.90;;;7.05;;
28653;SDS011;24320;56.980;24.336;2022-12-05T03:29:54;17.20;;;7.57;;
28653;SDS011;24320;56.980;24.336;2022-12-05T03:33:10;19.75;;;8.13;;
28653;SDS011;24320;56.980;24.336;2022-12-05T03:35:35;11.93;;;5.63;;
28653;SDS011;24320;56.980;24.336;2022-12-05T03:38:13;18.10;;;6.80;;
28653;SDS011;24320;56.980;24.336;2022-12-05T03:40:55;21.58;;;7.78;;
28653;SDS011;24320;56.980;24.336;2022-12-05T03:43:49;18.50;;;7.40;;
28653;SDS011;24320;56.980;24.336;2022-12-05T03:46:26;21.00;;;8.13;;
28653;SDS011;24320;56.980;24.336;2022-12-05T03:48:59;14.82;;;6.75;;
28653;SDS011;24320;56.980;24.336;2022-12-05T03:51:41;20.63;;;7.75;;
28653;SDS011;24320;56.980;24.336;2022-12-05T03:54:34;17.55;;;7.28;;
28653;SDS011;24320;56.980;24.336;2022-12-05T03:57:04;17.65;;;7.15;;
28653;SDS011;24320;56.980;24.336;2022-12-05T03:59:46;17.35;;;6.78;;
28653;SDS011;24320;56.980;24.336;2022-12-05T04:02:24;17.27;;;5.97;;
28653;SDS011;24320;56.980;24.336;2022-12-05T04:05:01;15.23;;;6.47;;
28653;SDS011;24320;56.980;24.336;2022-12-05T04:07:34;13.77;;;6.20;;
28653;SDS011;24320;56.980;24.336;2022-12-05T04:10:05;18.63;;;7.28;;
28653;SDS011;24320;56.980;24.336;2022-12-05T04:12:37;13.73;;;6.28;;
28653;SDS011;24320;56.980;24.336;2022-12-05T04:15:07;19.90;;;7.25;;
28653;SDS011;24320;56.980;24.336;2022-12-05T04:23:11;14.50;;;6.55;;
28653;SDS011;24320;56.980;24.336;2022-12-05T04:25:42;17.45;;;7.40;;
28653;SDS011;24320;56.980;24.336;2022-12-05T04:28:39;19.77;;;7.90;;
28653;SDS011;24320;56.980;24.336;2022-12-05T04:31:40;17.83;;;7.35;;
28653;SDS011;24320;56.980;24.336;2022-12-05T04:34:10;17.20;;;8.00;;
28653;SDS011;24320;56.980;24.336;2022-12-05T04:36:49;15.95;;;6.82;;
28653;SDS011;24320;56.980;24.336;2022-12-05T04:39:29;14.35;;;6.97;;
28653;SDS011;24320;56.980;24.336;2022-12-05T04:42:03;22.17;;;7.95;;
28653;SDS011;24320;56.980;24.336;2022-12-05T04:44:37;17.13;;;7.95;;
28653;SDS011;24320;56.980;24.336;2022-12-05T04:47:09;17.40;;;7.93;;
28653;SDS011;24320;56.980;24.336;2022-12-05T04:49:41;25.73;;;9.40;;
28653;SDS011;24320;56.980;24.336;2022-12-05T04:52:17;15.13;;;7.20;;
28653;SDS011;24320;56.980;24.336;2022-12-05T04:59:44;22.10;;;8.32;;
28653;SDS011;24320;56.980;24.336;2022-12-05T05:02:12;15.38;;;6.78;;
28653;SDS011;24320;56.980;24.336;2022-12-05T05:04:47;17.00;;;6.40;;
28653;SDS011;24320;56.980;24.336;2022-12-05T05:07:18;17.65;;;7.60;;
28653;SDS011;24320;56.980;24.336;2022-12-05T05:09:45;17.00;;;7.05;;
28653;SDS011;24320;56.980;24.336;2022-12-05T05:12:12;19.58;;;7.30;;
28653;SDS011;24320;56.980;24.336;2022-12-05T05:14:44;16.73;;;6.25;;
28653;SDS011;24320;56.980;24.336;2022-12-05T05:17:11;17.23;;;7.18;;
28653;SDS011;24320;56.980;24.336;2022-12-05T05:19:38;16.92;;;7.07;;
28653;SDS011;24320;56.980;24.336;2022-12-05T05:22:05;18.27;;;8.02;;
28653;SDS011;24320;56.980;24.336;2022-12-05T05:24:32;19.48;;;8.18;;
28653;SDS011;24320;56.980;24.336;2022-12-05T05:26:59;18.38;;;9.77;;
28653;SDS011;24320;56.980;24.336;2022-12-05T05:29:26;21.50;;;8.40;;
28653;SDS011;24320;56.980;24.336;2022-12-05T05:31:53;18.95;;;7.88;;
28653;SDS011;24320;56.980;24.336;2022-12-05T05:34:20;14.57;;;7.18;;
28653;SDS011;24320;56.980;24.336;2022-12-05T05:36:50;16.30;;;7.25;;
28653;SDS011;24320;56.980;24.336;2022-12-05T05:39:18;13.85;;;6.18;;
28653;SDS011;24320;56.980;24.336;2022-12-05T05:44:24;13.02;;;7.13;;
28653;SDS011;24320;56.980;24.336;2022-12-05T05:46:51;17.90;;;8.10;;
28653;SDS011;24320;56.980;24.336;2022-12-05T05:49:18;18.20;;;7.35;;
28653;SDS011;24320;56.980;24.336;2022-12-05T05:51:45;14.15;;;7.15;;
28653;SDS011;24320;56.980;24.336;2022-12-05T05:54:12;19.25;;;7.10;;
28653;SDS011;24320;56.980;24.336;2022-12-05T05:56:39;19.90;;;7.07;;
28653;SDS011;24320;56.980;24.336;2022-12-05T05:59:06;16.17;;;6.63;;
28653;SDS011;24320;56.980;24.336;2022-12-05T06:01:33;18.33;;;7.40;;
28653;SDS011;24320;56.980;24.336;2022-12-05T06:03:59;20.20;;;9.52;;
28653;SDS011;24320;56.980;24.336;2022-12-05T06:06:27;18.00;;;7.85;;
28653;SDS011;24320;56.980;24.336;2022-12-05T06:08:54;19.23;;;7.65;;
28653;SDS011;24320;56.980;24.336;2022-12-05T06:11:22;17.13;;;6.88;;
28653;SDS011;24320;56.980;24.336;2022-12-05T06:13:55;17.95;;;6.82;;
28653;SDS011;24320;56.980;24.336;2022-12-05T06:16:23;13.98;;;6.22;;
28653;SDS011;24320;56.980;24.336;2022-12-05T06:18:51;18.35;;;7.88;;
28653;SDS011;24320;56.980;24.336;2022-12-05T06:21:19;20.27;;;8.93;;
28653;SDS011;24320;56.980;24.336;2022-12-05T06:23:48;16.15;;;6.78;;
28653;SDS011;24320;56.980;24.336;2022-12-05T06:26:16;23.15;;;8.63;;
28653;SDS011;24320;56.980;24.336;2022-12-05T06:28:45;18.57;;;6.90;;
28653;SDS011;24320;56.980;24.336;2022-12-05T06:31:16;16.98;;;7.47;;
28653;SDS011;24320;56.980;24.336;2022-12-05T06:33:45;14.85;;;6.85;;
28653;SDS011;24320;56.980;24.336;2022-12-05T06:36:13;18.17;;;6.30;;
28653;SDS011;24320;56.980;24.336;2022-12-05T06:38:43;15.48;;;8.48;;
28653;SDS011;24320;56.980;24.336;2022-12-05T06:41:10;15.65;;;7.88;;
28653;SDS011;24320;56.980;24.336;2022-12-05T06:43:40;18.80;;;7.55;;
28653;SDS011;24320;56.980;24.336;2022-12-05T06:46:08;17.25;;;7.05;;
28653;SDS011;24320;56.980;24.336;2022-12-05T06:48:37;17.75;;;7.43;;
28653;SDS011;24320;56.980;24.336;2022-12-05T06:51:07;15.70;;;7.43;;
28653;SDS011;24320;56.980;24.336;2022-12-05T06:53:35;16.35;;;6.93;;
28653;SDS011;24320;56.980;24.336;2022-12-05T06:56:03;19.90;;;7.80;;
28653;SDS011;24320;56.980;24.336;2022-12-05T06:58:33;21.20;;;9.07;;
28653;SDS011;24320;56.980;24.336;2022-12-05T07:01:00;15.80;;;7.88;;
28653;SDS011;24320;56.980;24.336;2022-12-05T07:03:47;19.77;;;8.27;;
28653;SDS011;24320;56.980;24.336;2022-12-05T07:06:15;16.08;;;6.93;;
28653;SDS011;24320;56.980;24.336;2022-12-05T07:08:42;15.98;;;6.78;;
28653;SDS011;24320;56.980;24.336;2022-12-05T07:11:10;15.38;;;6.82;;
28653;SDS011;24320;56.980;24.336;2022-12-05T07:13:37;20.98;;;7.28;;
28653;SDS011;24320;56.980;24.336;2022-12-05T07:16:04;24.50;;;9.68;;
28653;SDS011;24320;56.980;24.336;2022-12-05T07:18:33;18.95;;;8.00;;
28653;SDS011;24320;56.980;24.336;2022-12-05T07:21:04;17.65;;;7.47;;
28653;SDS011;24320;56.980;24.336;2022-12-05T07:23:38;19.75;;;7.85;;
28653;SDS011;24320;56.980;24.336;2022-12-05T07:26:07;18.30;;;7.43;;
28653;SDS011;24320;56.980;24.336;2022-12-05T07:28:35;15.93;;;6.70;;
28653;SDS011;24320;56.980;24.336;2022-12-05T07:31:03;21.00;;;7.95;;
28653;SDS011;24320;56.980;24.336;2022-12-05T07:33:31;18.50;;;7.80;;
28653;SDS011;24320;56.980;24.336;2022-12-05T07:35:59;17.70;;;7.15;;
28653;SDS011;24320;56.980;24.336;2022-12-05T07:38:33;21.85;;;9.20;;
28653;SDS011;24320;56.980;24.336;2022-12-05T07:41:07;18.92;;;8.75;;
28653;SDS011;24320;56.980;24.336;2022-12-05T07:43:39;19.52;;;7.57;;
28653;SDS011;24320;56.980;24.336;2022-12-05T07:46:07;19.10;;;7.32;;
28653;SDS011;24320;56.980;24.336;2022-12-05T07:48:37;16.50;;;7.28;;
28653;SDS011;24320;56.980;24.336;2022-12-05T07:51:05;18.08;;;7.35;;
28653;SDS011;24320;56.980;24.336;2022-12-05T07:53:33;18.50;;;8.07;;
28653;SDS011;24320;56.980;24.336;2022-12-05T07:56:00;17.83;;;7.53;;
28653;SDS011;24320;56.980;24.336;2022-12-05T07:58:30;21.15;;;9.15;;
28653;SDS011;24320;56.980;24.336;2022-12-05T08:01:08;17.42;;;8.23;;
28653;SDS011;24320;56.980;24.336;2022-12-05T08:03:43;24.27;;;8.07;;
28653;SDS011;24320;56.980;24.336;2022-12-05T10:07:37;18.15;;;7.22;;
28653;SDS011;24320;56.980;24.336;2022-12-05T10:11:07;11.98;;;5.68;;
28653;SDS011;24320;56.980;24.336;2022-12-05T10:17:10;18.92;;;8.15;;
28653;SDS011;24320;56.980;24.336;2022-12-05T10:19:58;20.55;;;8.48;;
28653;SDS011;24320;56.980;24.336;2022-12-05T10:25:02;19.95;;;7.97;;
28653;SDS011;24320;56.980;24.336;2022-12-05T10:27:35;20.80;;;8.35;;
28653;SDS011;24320;56.980;24.336;2022-12-05T10:35:26;20.30;;;8.27;;
28653;SDS011;24320;56.980;24.336;2022-12-05T10:38:05;19.63;;;6.38;;
28653;SDS011;24320;56.980;24.336;2022-12-05T10:40:54;23.77;;;8.82;;
28653;SDS011;24320;56.980;24.336;2022-12-05T10:43:26;24.55;;;7.22;;
28653;SDS011;24320;56.980;24.336;2022-12-05T10:45:55;18.20;;;6.90;;
28653;SDS011;24320;56.980;24.336;2022-12-05T10:48:23;24.75;;;8.65;;
28653;SDS011;24320;56.980;24.336;2022-12-05T10:50:54;27.27;;;9.13;;
28653;SDS011;24320;56.980;24.336;2022-12-05T10:53:24;18.42;;;8.30;;
28653;SDS011;24320;56.980;24.336;2022-12-05T10:59:02;24.83;;;9.85;;
28653;SDS011;24320;56.980;24.336;2022-12-05T11:01:29;26.55;;;9.02;;
28653;SDS011;24320;56.980;24.336;2022-12-05T11:03:58;29.05;;;9.38;;
28653;SDS011;24320;56.980;24.336;2022-12-05T11:06:30;25.17;;;9.07;;
28653;SDS011;24320;56.980;24.336;2022-12-05T11:08:58;22.67;;;9.30;;
28653;SDS011;24320;56.980;24.336;2022-12-05T11:11:35;24.95;;;6.22;;
28653;SDS011;24320;56.980;24.336;2022-12-05T11:14:06;22.00;;;8.27;;
28653;SDS011;24320;56.980;24.336;2022-12-05T11:16:50;19.92;;;7.75;;
28653;SDS011;24320;56.980;24.336;2022-12-05T11:21:52;17.25;;;7.93;;
28653;SDS011;24320;56.980;24.336;2022-12-05T11:24:21;21.42;;;7.85;;
28653;SDS011;24320;56.980;24.336;2022-12-05T11:27:37;21.63;;;8.82;;
28653;SDS011;24320;56.980;24.336;2022-12-05T11:32:49;11.15;;;5.10;;
28653;SDS011;24320;56.980;24.336;2022-12-05T11:35:21;13.43;;;4.47;;
28653;SDS011;24320;56.980;24.336;2022-12-05T11:40:27;17.95;;;6.50;;
28653;SDS011;24320;56.980;24.336;2022-12-05T11:54:08;16.45;;;5.95;;
28653;SDS011;24320;56.980;24.336;2022-12-05T12:05:35;22.88;;;8.57;;
28653;SDS011;24320;56.980;24.336;2022-12-05T12:23:07;18.10;;;6.93;;
28653;SDS011;24320;56.980;24.336;2022-12-05T12:33:31;19.80;;;7.40;;
28653;SDS011;24320;56.980;24.336;2022-12-05T12:50:12;14.63;;;7.55;;
28653;SDS011;24320;56.980;24.336;2022-12-05T13:03:51;19.25;;;7.38;;
28653;SDS011;24320;56.980;24.336;2022-12-05T13:06:33;18.85;;;7.75;;
28653;SDS011;24320;56.980;24.336;2022-12-05T13:09:19;15.77;;;7.35;;
28653;SDS011;24320;56.980;24.336;2022-12-05T13:11:47;17.80;;;6.57;;
28653;SDS011;24320;56.980;24.336;2022-12-05T13:14:17;17.63;;;5.97;;
28653;SDS011;24320;56.980;24.336;2022-12-05T13:16:50;20.15;;;7.05;;
28653;SDS011;24320;56.980;24.336;2022-12-05T13:22:03;22.92;;;9.05;;
28653;SDS011;24320;56.980;24.336;2022-12-05T13:24:32;19.33;;;7.82;;
28653;SDS011;24320;56.980;24.336;2022-12-05T13:27:01;18.25;;;7.25;;
28653;SDS011;24320;56.980;24.336;2022-12-05T13:29:32;22.05;;;8.63;;
28653;SDS011;24320;56.980;24.336;2022-12-05T13:32:03;25.08;;;8.75;;
28653;SDS011;24320;56.980;24.336;2022-12-05T13:37:08;23.40;;;8.13;;
28653;SDS011;24320;56.980;24.336;2022-12-05T13:39:56;21.83;;;7.43;;
28653;SDS011;24320;56.980;24.336;2022-12-05T13:42:48;16.40;;;8.00;;
28653;SDS011;24320;56.980;24.336;2022-12-05T13:45:26;17.35;;;7.20;;
28653;SDS011;24320;56.980;24.336;2022-12-05T13:53:18;17.65;;;7.90;;
28653;SDS011;24320;56.980;24.336;2022-12-05T13:56:45;22.98;;;9.30;;
28653;SDS011;24320;56.980;24.336;2022-12-05T13:58:56;20.47;;;8.47;;
28653;SDS011;24320;56.980;24.336;2022-12-05T14:03:58;17.40;;;6.93;;
28653;SDS011;24320;56.980;24.336;2022-12-05T14:17:35;22.70;;;9.15;;
28653;SDS011;24320;56.980;24.336;2022-12-05T14:23:06;16.65;;;6.90;;
28653;SDS011;24320;56.980;24.336;2022-12-05T14:26:30;10.30;;;4.73;;
28653;SDS011;24320;56.980;24.336;2022-12-05T14:28:50;15.20;;;5.90;;
28653;SDS011;24320;56.980;24.336;2022-12-05T14:31:26;13.88;;;6.55;;
28653;SDS011;24320;56.980;24.336;2022-12-05T14:34:27;15.48;;;5.60;;
28653;SDS011;24320;56.980;24.336;2022-12-05T14:36:58;13.88;;;6.68;;
28653;SDS011;24320;56.980;24.336;2022-12-05T14:39:39;11.60;;;5.85;;
28653;SDS011;24320;56.980;24.336;2022-12-05T14:42:22;10.48;;;4.90;;
28653;SDS011;24320;56.980;24.336;2022-12-05T14:44:55;16.00;;;6.65;;
28653;SDS011;24320;56.980;24.336;2022-12-05T14:47:28;13.05;;;6.78;;
28653;SDS011;24320;56.980;24.336;2022-12-05T14:55:41;12.73;;;6.45;;
28653;SDS011;24320;56.980;24.336;2022-12-05T14:58:18;20.55;;;9.05;;
28653;SDS011;24320;56.980;24.336;2022-12-05T15:01:53;18.13;;;7.55;;
28653;SDS011;24320;56.980;24.336;2022-12-05T15:04:03;16.90;;;7.28;;
28653;SDS011;24320;56.980;24.336;2022-12-05T15:06:51;16.05;;;7.43;;
28653;SDS011;24320;56.980;24.336;2022-12-05T15:09:43;18.63;;;6.53;;
28653;SDS011;24320;56.980;24.336;2022-12-05T15:12:32;10.05;;;4.72;;
28653;SDS011;24320;56.980;24.336;2022-12-05T15:15:14;20.25;;;7.35;;
28653;SDS011;24320;56.980;24.336;2022-12-05T15:17:50;15.98;;;6.93;;
28653;SDS011;24320;56.980;24.336;2022-12-05T15:26:03;16.95;;;7.80;;
28653;SDS011;24320;56.980;24.336;2022-12-05T15:37:25;16.85;;;6.75;;
28653;SDS011;24320;56.980;24.336;2022-12-05T15:40:02;15.13;;;6.05;;
28653;SDS011;24320;56.980;24.336;2022-12-05T15:42:38;10.80;;;5.60;;
28653;SDS011;24320;56.980;24.336;2022-12-05T15:45:24;14.15;;;6.57;;
28653;SDS011;24320;56.980;24.336;2022-12-05T15:47:54;15.15;;;5.90;;
28653;SDS011;24320;56.980;24.336;2022-12-05T15:50:41;12.93;;;5.30;;
28653;SDS011;24320;56.980;24.336;2022-12-05T15:56:14;15.55;;;5.88;;
28653;SDS011;24320;56.980;24.336;2022-12-05T16:01:21;13.13;;;5.40;;
28653;SDS011;24320;56.980;24.336;2022-12-05T16:08:53;10.73;;;4.45;;
28653;SDS011;24320;56.980;24.336;2022-12-05T16:11:22;16.00;;;6.85;;
28653;SDS011;24320;56.980;24.336;2022-12-05T16:13:50;17.85;;;6.25;;
28653;SDS011;24320;56.980;24.336;2022-12-05T16:16:23;10.18;;;5.57;;
28653;SDS011;24320;56.980;24.336;2022-12-05T16:18:54;12.20;;;4.93;;
28653;SDS011;24320;56.980;24.336;2022-12-05T16:26:35;9.68;;;3.88;;
28653;SDS011;24320;56.980;24.336;2022-12-05T16:29:03;13.35;;;4.47;;
28653;SDS011;24320;56.980;24.336;2022-12-05T16:31:31;12.82;;;4.95;;
28653;SDS011;24320;56.980;24.336;2022-12-05T16:34:05;16.92;;;7.25;;
28653;SDS011;24320;56.980;24.336;2022-12-05T16:36:33;14.00;;;5.60;;
28653;SDS011;24320;56.980;24.336;2022-12-05T16:39:05;13.15;;;5.28;;
28653;SDS011;24320;56.980;24.336;2022-12-05T16:41:44;14.98;;;5.00;;
28653;SDS011;24320;56.980;24.336;2022-12-05T16:45:23;11.55;;;4.68;;
28653;SDS011;24320;56.980;24.336;2022-12-05T16:47:18;17.88;;;6.05;;
28653;SDS011;24320;56.980;24.336;2022-12-05T16:49:49;18.60;;;6.57;;
28653;SDS011;24320;56.980;24.336;2022-12-05T16:52:16;12.50;;;4.65;;
28653;SDS011;24320;56.980;24.336;2022-12-05T16:54:44;10.20;;;4.00;;
28653;SDS011;24320;56.980;24.336;2022-12-05T16:57:13;10.93;;;5.18;;
28653;SDS011;24320;56.980;24.336;2022-12-05T16:59:42;16.13;;;5.50;;
28653;SDS011;24320;56.980;24.336;2022-12-05T17:04:48;10.10;;;4.13;;
28653;SDS011;24320;56.980;24.336;2022-12-05T17:07:15;9.48;;;4.28;;
28653;SDS011;24320;56.980;24.336;2022-12-05T17:09:42;12.00;;;5.82;;
28653;SDS011;24320;56.980;24.336;2022-12-05T17:12:10;12.20;;;4.97;;
28653;SDS011;24320;56.980;24.336;2022-12-05T17:14:44;9.63;;;5.10;;
28653;SDS011;24320;56.980;24.336;2022-12-05T17:17:12;8.90;;;3.50;;
28653;SDS011;24320;56.980;24.336;2022-12-05T17:19:41;12.38;;;5.03;;
28653;SDS011;24320;56.980;24.336;2022-12-05T17:22:09;11.98;;;4.60;;
28653;SDS011;24320;56.980;24.336;2022-12-05T17:24:37;13.40;;;6.30;;
28653;SDS011;24320;56.980;24.336;2022-12-05T17:27:05;12.38;;;5.18;;
28653;SDS011;24320;56.980;24.336;2022-12-05T17:29:36;15.52;;;6.07;;
28653;SDS011;24320;56.980;24.336;2022-12-05T17:32:03;14.30;;;5.22;;
28653;SDS011;24320;56.980;24.336;2022-12-05T17:34:30;16.42;;;5.53;;
28653;SDS011;24320;56.980;24.336;2022-12-05T17:36:57;11.85;;;5.57;;
28653;SDS011;24320;56.980;24.336;2022-12-05T17:39:25;12.32;;;4.95;;
28653;SDS011;24320;56.980;24.336;2022-12-05T17:41:54;10.65;;;4.80;;
28653;SDS011;24320;56.980;24.336;2022-12-05T17:44:22;18.20;;;5.57;;
28653;SDS011;24320;56.980;24.336;2022-12-05T17:46:49;11.95;;;4.32;;
28653;SDS011;24320;56.980;24.336;2022-12-05T17:49:16;15.55;;;4.70;;
28653;SDS011;24320;56.980;24.336;2022-12-05T17:51:44;11.82;;;5.50;;
28653;SDS011;24320;56.980;24.336;2022-12-05T17:54:31;12.32;;;5.28;;
28653;SDS011;24320;56.980;24.336;2022-12-05T17:56:58;17.75;;;7.03;;
28653;SDS011;24320;56.980;24.336;2022-12-05T17:59:25;21.55;;;8.02;;
28653;SDS011;24320;56.980;24.336;2022-12-05T18:01:52;25.40;;;7.65;;
28653;SDS011;24320;56.980;24.336;2022-12-05T18:04:19;17.77;;;4.72;;
28653;SDS011;24320;56.980;24.336;2022-12-05T18:06:48;10.77;;;5.43;;
28653;SDS011;24320;56.980;24.336;2022-12-05T18:09:16;14.70;;;4.88;;
28653;SDS011;24320;56.980;24.336;2022-12-05T18:11:43;9.52;;;3.67;;
28653;SDS011;24320;56.980;24.336;2022-12-05T18:14:10;16.83;;;7.03;;
28653;SDS011;24320;56.980;24.336;2022-12-05T18:16:37;16.50;;;6.35;;
28653;SDS011;24320;56.980;24.336;2022-12-05T18:19:04;13.90;;;7.00;;
28653;SDS011;24320;56.980;24.336;2022-12-05T18:21:33;13.73;;;7.28;;
28653;SDS011;24320;56.980;24.336;2022-12-05T18:24:00;17.52;;;6.90;;
28653;SDS011;24320;56.980;24.336;2022-12-05T18:26:27;8.70;;;5.05;;
28653;SDS011;24320;56.980;24.336;2022-12-05T18:28:54;10.70;;;5.35;;
28653;SDS011;24320;56.980;24.336;2022-12-05T18:31:22;10.98;;;5.13;;
28653;SDS011;24320;56.980;24.336;2022-12-05T18:33:49;13.38;;;5.47;;
28653;SDS011;24320;56.980;24.336;2022-12-05T18:36:18;7.40;;;3.83;;
28653;SDS011;24320;56.980;24.336;2022-12-05T18:38:50;10.73;;;4.50;;
28653;SDS011;24320;56.980;24.336;2022-12-05T18:41:18;10.77;;;5.03;;
28653;SDS011;24320;56.980;24.336;2022-12-05T18:43:48;12.80;;;5.10;;
28653;SDS011;24320;56.980;24.336;2022-12-05T18:46:15;13.23;;;4.90;;
28653;SDS011;24320;56.980;24.336;2022-12-05T18:48:43;12.15;;;5.57;;
28653;SDS011;24320;56.980;24.336;2022-12-05T18:51:19;15.48;;;5.18;;
28653;SDS011;24320;56.980;24.336;2022-12-05T18:53:48;10.20;;;5.13;;
28653;SDS011;24320;56.980;24.336;2022-12-05T18:56:20;10.00;;;3.53;;
28653;SDS011;24320;56.980;24.336;2022-12-05T18:58:51;11.23;;;4.85;;
28653;SDS011;24320;56.980;24.336;2022-12-05T19:01:23;13.35;;;4.85;;
28653;SDS011;24320;56.980;24.336;2022-12-05T19:03:51;18.30;;;3.63;;
28653;SDS011;24320;56.980;24.336;2022-12-05T19:06:19;6.18;;;3.38;;
28653;SDS011;24320;56.980;24.336;2022-12-05T19:08:47;12.93;;;5.50;;
28653;SDS011;24320;56.980;24.336;2022-12-05T19:11:15;12.15;;;5.35;;
28653;SDS011;24320;56.980;24.336;2022-12-05T19:13:44;15.43;;;5.13;;
28653;SDS011;24320;56.980;24.336;2022-12-05T19:16:13;22.95;;;7.13;;
28653;SDS011;24320;56.980;24.336;2022-12-05T20:26:10;16.27;;;6.28;;
28653;SDS011;24320;56.980;24.336;2022-12-05T20:28:39;7.55;;;4.72;;
28653;SDS011;24320;56.980;24.336;2022-12-05T20:33:38;8.00;;;3.45;;
28653;SDS011;24320;56.980;24.336;2022-12-05T20:36:12;8.13;;;3.85;;
28653;SDS011;24320;56.980;24.336;2022-12-05T20:38:44;8.73;;;4.72;;
28653;SDS011;24320;56.980;24.336;2022-12-05T20:41:14;11.32;;;5.05;;
28653;SDS011;24320;56.980;24.336;2022-12-05T20:43:43;9.63;;;4.00;;
28653;SDS011;24320;56.980;24.336;2022-12-05T20:46:12;16.17;;;6.55;;
28653;SDS011;24320;56.980;24.336;2022-12-05T20:48:41;8.82;;;4.65;;
28653;SDS011;24320;56.980;24.336;2022-12-05T20:51:12;10.52;;;5.15;;
28653;SDS011;24320;56.980;24.336;2022-12-05T20:53:41;12.43;;;3.85;;
28653;SDS011;24320;56.980;24.336;2022-12-05T20:56:13;21.60;;;7.35;;
28653;SDS011;24320;56.980;24.336;2022-12-05T20:58:43;11.25;;;4.70;;
28653;SDS011;24320;56.980;24.336;2022-12-05T21:01:13;10.23;;;5.17;;
28653;SDS011;24320;56.980;24.336;2022-12-05T21:03:41;12.10;;;5.50;;
28653;SDS011;24320;56.980;24.336;2022-12-05T21:06:14;11.10;;;6.00;;
28653;SDS011;24320;56.980;24.336;2022-12-05T21:08:43;11.13;;;5.80;;
28653;SDS011;24320;56.980;24.336;2022-12-05T21:11:11;13.52;;;6.10;;
28653;SDS011;24320;56.980;24.336;2022-12-05T21:13:39;10.77;;;5.32;;
28653;SDS011;24320;56.980;24.336;2022-12-05T21:16:07;12.27;;;5.72;;
28653;SDS011;24320;56.980;24.336;2022-12-05T21:18:37;12.55;;;5.30;;
28653;SDS011;24320;56.980;24.336;2022-12-05T21:21:05;11.15;;;6.13;;
28653;SDS011;24320;56.980;24.336;2022-12-05T21:23:34;10.70;;;4.93;;
28653;SDS011;24320;56.980;24.336;2022-12-05T21:26:05;13.50;;;5.30;;